Main page
METAR-TAF:

METAR-TAF

Airports :

Mazatlán International Airport

Mazatlán, Mexico

latitude: 23-10N, longitude: 106-16W, elevation: 10 m

Current weather observation

The report was made 1 hour and 11 minutes ago, at 08:41 UTC
Calm wind
Temperature 13°C
Humidity 94%
Pressure 1016 hPa
Visibility: 16.1 km
Clear sky

METAR: MMMZ 220841Z 00000KT 10SM SKC 13/12 A3001 RMK SLP147 52003 990

Time: 02:52 (09:52 UTC)

Forecast

The report was made 5 hours and 10 minutes ago, at 04:42 UTC
Forecast valid from 22 at 06 UTC to 23 at 06 UTC
Wind 5 kt from the North/Northeast
Visibility: 10 km
Scattered clouds at a height of 20000 ft
From 22 at 1600 UTC
Wind 10 kt from the Southwest
Visibility: 10 km
Broken clouds at a height of 20000 ft
From 23 at 0300 UTC
Wind 5 kt from the North/Northeast
Visibility: 10 km
Broken clouds at a height of 20000 ft

TAF: MMMZ 220442Z 2206/2306 03005KT P6SM SCT200 TX28/2221Z TN16/2212Z FM221600 23010KT P6SM BKN200 FM230300 03005KT P6SM BKN200

Weather observations and forecasts of more than 4000 airports (METAR and TAF reports).

The available stations are represented by yellow and red dots on the map.

Hover mouse over dot to see the name of the station.

Then click to see weather observations and forecasts.

To change the map : click on the green buttons with a black cross to zoom in, on the green button with a dash to zoom out, or on the green arrows for adjacent maps.


METAR-TAF: